Time;durP1;ratioP1;P1;durP2;ratioP2;P2;SDS_P1;SDS_P2;PMS_P1;PMS_P2;Temp;Humidity;BMP_temperature;BMP_pressure;BME280_temperature;BME280_humidity;BME280_pressure;Samples;Min_cycle;Max_cycle;Signal;HPM_P1;HPM_P2
2023/01/18 00:00:43;;;;;;;9.87;8.20;;;21.80;54.30;;;;;;6185665;23;20367;-65
2023/01/18 00:03:10;;;;;;;9.93;8.63;;;21.80;54.30;;;;;;6185454;23;20375;-65
2023/01/18 00:05:39;;;;;;;8.40;7.50;;;21.80;54.30;;;;;;6185868;23;20371;-65
2023/01/18 00:08:18;;;;;;;10.70;9.57;;;21.80;54.30;;;;;;6185543;23;20371;-65
2023/01/18 00:10:44;;;;;;;10.03;8.83;;;21.80;54.30;;;;;;6185722;23;20351;-65
2023/01/18 00:13:10;;;;;;;9.57;8.10;;;21.80;54.30;;;;;;6185307;23;20505;-65
2023/01/18 00:15:38;;;;;;;9.80;8.80;;;21.80;54.30;;;;;;6185189;23;20371;-65
2023/01/18 00:18:04;;;;;;;12.27;7.53;;;21.80;54.30;;;;;;6185267;23;20375;-65
2023/01/18 00:20:30;;;;;;;11.13;8.30;;;21.80;54.40;;;;;;6185488;23;20367;-65
2023/01/18 00:22:58;;;;;;;9.07;7.70;;;21.80;54.40;;;;;;6184964;23;20489;-65
2023/01/18 00:25:24;;;;;;;9.13;8.33;;;21.80;54.40;;;;;;6185231;23;20383;-65
2023/01/18 00:27:52;;;;;;;9.77;7.90;;;21.80;54.40;;;;;;6185553;23;20786;-65
2023/01/18 00:30:19;;;;;;;7.77;7.00;;;21.80;54.40;;;;;;6185159;23;20151;-65
2023/01/18 00:32:52;;;;;;;9.30;8.30;;;21.70;54.30;;;;;;6185318;23;20477;-65
2023/01/18 00:35:20;;;;;;;9.23;7.70;;;21.80;54.40;;;;;;6185274;23;20359;-65
2023/01/18 00:37:47;;;;;;;9.40;7.57;;;21.80;54.80;;;;;;6185218;23;20447;-65
2023/01/18 00:40:14;;;;;;;10.00;8.60;;;21.70;54.30;;;;;;6185171;23;20410;-65
2023/01/18 00:45:25;;;;;;;8.57;7.43;;;21.80;54.40;;;;;;6186608;23;20682;-63
2023/01/18 00:47:51;;;;;;;8.80;7.90;;;21.70;54.30;;;;;;6187385;23;20462;-65
2023/01/18 00:50:19;;;;;;;8.63;6.63;;;21.70;54.40;;;;;;6187432;23;20234;-65
2023/01/18 00:52:45;;;;;;;7.60;6.40;;;21.80;54.40;;;;;;6186940;23;20754;-64
2023/01/18 00:55:12;;;;;;;8.00;7.00;;;21.70;54.40;;;;;;6187053;23;20378;-65
2023/01/18 00:57:38;;;;;;;9.00;7.07;;;21.70;54.30;;;;;;6187566;23;20389;-65
2023/01/18 01:00:05;;;;;;;11.30;8.53;;;21.70;54.30;;;;;;6187381;23;20458;-65
2023/01/18 01:02:30;;;;;;;7.70;6.90;;;21.70;54.40;;;;;;6186962;23;20506;-65
2023/01/18 01:07:40;;;;;;;8.07;7.27;;;21.70;54.40;;;;;;6187362;23;20178;-65
2023/01/18 01:10:07;;;;;;;8.37;7.23;;;21.70;54.40;;;;;;6187065;23;20398;-65
2023/01/18 01:26:14;;;;;;;7.70;6.90;;;21.70;54.50;;;;;;6186911;23;20881;-65
2023/01/18 01:28:48;;;;;;;8.57;7.67;;;21.70;54.50;;;;;;6186916;23;20372;-65
2023/01/18 01:31:15;;;;;;;8.57;7.00;;;21.60;54.40;;;;;;6186722;23;20174;-65
2023/01/18 01:33:42;;;;;;;7.50;6.57;;;21.60;54.40;;;;;;6186587;23;20422;-64
2023/01/18 01:36:11;;;;;;;8.23;7.00;;;21.60;54.40;;;;;;6187086;23;20406;-65
2023/01/18 01:38:37;;;;;;;9.20;7.50;;;21.60;54.40;;;;;;6186728;23;20462;-65
2023/01/18 01:41:06;;;;;;;8.60;6.83;;;21.60;54.40;;;;;;6186837;23;20776;-64
2023/01/18 01:44:24;;;;;;;7.73;6.93;;;21.60;54.40;;;;;;6186936;23;20370;-65
2023/01/18 01:46:57;;;;;;;7.93;7.10;;;21.60;54.40;;;;;;6122801;23;20529;-65
2023/01/18 01:49:39;;;;;;;7.70;6.60;;;21.60;54.50;;;;;;6186842;23;20367;-65
2023/01/18 01:52:11;;;;;;;10.40;6.83;;;21.60;54.50;;;;;;6186618;23;20425;-65
2023/01/18 01:54:48;;;;;;;8.00;6.33;;;21.60;54.50;;;;;;6186579;23;20367;-65
2023/01/18 01:57:17;;;;;;;8.47;6.93;;;21.50;54.50;;;;;;6186603;23;20355;-67
2023/01/18 01:59:52;;;;;;;9.47;7.07;;;21.60;54.60;;;;;;6186431;23;20368;-64
2023/01/18 02:02:18;;;;;;;8.97;6.37;;;21.50;54.50;;;;;;6186374;23;20413;-65
2023/01/18 02:04:45;;;;;;;9.60;8.03;;;21.60;54.60;;;;;;6186735;23;20457;-65
2023/01/18 02:07:11;;;;;;;7.70;6.80;;;21.60;54.60;;;;;;6186740;23;20144;-66
2023/01/18 02:09:38;;;;;;;7.60;6.83;;;21.60;54.60;;;;;;6186364;23;20678;-65
2023/01/18 02:12:04;;;;;;;8.07;6.87;;;21.50;54.50;;;;;;6186279;23;20391;-65
2023/01/18 02:14:30;;;;;;;7.30;6.37;;;21.60;54.60;;;;;;6186323;23;20717;-65
2023/01/18 02:17:05;;;;;;;8.60;7.40;;;21.50;54.50;;;;;;6186293;23;20379;-65
2023/01/18 02:20:08;;;;;;;7.30;6.40;;;21.50;54.50;;;;;;6186610;23;20366;-65
2023/01/18 02:23:01;;;;;;;7.67;6.37;;;21.50;54.50;;;;;;6186068;23;20413;-65
2023/01/18 02:25:27;;;;;;;7.67;6.80;;;21.50;54.60;;;;;;6186513;23;20449;-65
2023/01/18 02:28:18;;;;;;;7.63;6.60;;;21.50;54.60;;;;;;6186237;23;20371;-65
2023/01/18 02:30:53;;;;;;;7.30;6.60;;;21.50;54.60;;;;;;6186064;23;20454;-64
2023/01/18 02:33:37;;;;;;;8.47;7.50;;;21.50;54.60;;;;;;6186107;23;20398;-65
2023/01/18 02:36:05;;;;;;;9.10;6.97;;;21.50;54.60;;;;;;6162615;23;20709;-66
2023/01/18 02:38:39;;;;;;;6.90;6.20;;;21.50;54.60;;;;;;6159663;23;20413;-66
2023/01/18 02:46:29;;;;;;;7.80;7.00;;;21.40;54.60;;;;;;6186317;23;20474;-66
2023/01/18 02:47:05;;;;;;;6.90;6.20;;;21.40;54.50;;;;;;6185961;23;20430;-65
2023/01/18 02:49:31;;;;;;;7.30;6.60;;;21.40;54.50;;;;;;6185958;23;20390;-65
2023/01/18 02:52:37;;;;;;;6.23;5.60;;;21.40;54.60;;;;;;6186207;23;20391;-65
2023/01/18 02:55:04;;;;;;;10.20;6.83;;;21.50;54.60;;;;;;6186285;23;20148;-66
2023/01/18 02:57:31;;;;;;;6.80;6.10;;;21.40;54.60;;;;;;6186231;23;20429;-65
2023/01/18 02:59:59;;;;;;;6.70;6.10;;;21.40;54.50;;;;;;6185990;23;20418;-65
2023/01/18 03:02:25;;;;;;;7.10;5.63;;;21.40;54.50;;;;;;6185741;23;20383;-66
2023/01/18 03:04:53;;;;;;;6.80;5.73;;;21.40;54.50;;;;;;6185763;23;20418;-65
2023/01/18 03:07:19;;;;;;;6.40;5.70;;;21.40;54.40;;;;;;6185368;23;20356;-65
2023/01/18 03:09:45;;;;;;;7.17;6.30;;;21.40;54.40;;;;;;6185863;23;20381;-65
2023/01/18 03:12:21;;;;;;;7.63;6.83;;;21.40;54.40;;;;;;6185645;23;20222;-65
2023/01/18 03:15:28;;;;;;;6.47;5.87;;;21.50;54.50;;;;;;6159478;23;20375;-65
2023/01/18 03:17:58;;;;;;;6.83;6.13;;;21.40;54.40;;;;;;6185835;23;20547;-65
2023/01/18 03:20:34;;;;;;;7.20;6.37;;;21.40;54.40;;;;;;6185631;23;20438;-65
2023/01/18 03:26:03;;;;;;;6.63;5.93;;;21.40;54.40;;;;;;6185781;23;20358;-65
2023/01/18 03:34:32;;;;;;;6.70;5.77;;;21.40;54.50;;;;;;6185557;23;20409;-65
2023/01/18 03:37:03;;;;;;;7.23;6.10;;;21.40;54.50;;;;;;6159576;23;20490;-65
2023/01/18 03:39:36;;;;;;;6.97;5.80;;;21.40;54.50;;;;;;6185905;23;20481;-65
2023/01/18 03:42:15;;;;;;;6.53;5.67;;;21.40;54.60;;;;;;6185486;23;20399;-65
2023/01/18 03:44:49;;;;;;;6.13;5.37;;;21.40;54.60;;;;;;6185632;23;20363;-65
2023/01/18 03:47:15;;;;;;;6.43;5.80;;;21.40;54.60;;;;;;6185800;23;20417;-65
2023/01/18 03:49:41;;;;;;;7.27;6.50;;;21.40;54.60;;;;;;6185431;23;20363;-65
2023/01/18 03:52:14;;;;;;;6.33;5.73;;;21.40;54.60;;;;;;6185297;23;20391;-65
2023/01/18 03:54:51;;;;;;;6.87;5.30;;;21.40;54.60;;;;;;6185475;23;20166;-65
2023/01/18 03:57:24;;;;;;;7.10;5.77;;;21.40;54.60;;;;;;6185717;23;20366;-63
2023/01/18 03:59:50;;;;;;;6.13;5.50;;;21.40;54.60;;;;;;6185757;23;20383;-65
2023/01/18 04:02:17;;;;;;;7.50;6.17;;;21.30;54.50;;;;;;6185275;23;20391;-65
2023/01/18 04:04:43;;;;;;;7.10;6.40;;;21.40;54.60;;;;;;6185374;23;20375;-65
2023/01/18 04:07:09;;;;;;;6.77;6.03;;;21.30;54.50;;;;;;6185358;23;20857;-65
2023/01/18 04:09:34;;;;;;;6.00;5.40;;;21.30;54.50;;;;;;6185359;23;20421;-65
2023/01/18 04:12:00;;;;;;;6.57;5.83;;;21.30;54.50;;;;;;6185386;23;20682;-65
2023/01/18 04:14:25;;;;;;;7.07;6.37;;;21.30;54.60;;;;;;6158883;23;20191;-65
2023/01/18 04:16:51;;;;;;;5.57;5.07;;;21.30;54.60;;;;;;6185312;23;20592;-65
2023/01/18 04:19:17;;;;;;;7.10;5.60;;;21.30;54.50;;;;;;6185196;23;20151;-65
2023/01/18 04:21:43;;;;;;;6.27;5.00;;;21.30;54.50;;;;;;6185102;23;20186;-65
2023/01/18 04:24:10;;;;;;;6.43;5.60;;;21.30;54.50;;;;;;6185549;23;20391;-65
2023/01/18 04:26:36;;;;;;;7.37;5.77;;;21.30;54.50;;;;;;6158895;23;20183;-66
2023/01/18 04:29:02;;;;;;;7.37;5.97;;;21.30;54.50;;;;;;6185298;23;20941;-65
2023/01/18 04:31:28;;;;;;;6.10;5.50;;;21.30;54.60;;;;;;6185111;23;20798;-65
2023/01/18 04:33:54;;;;;;;6.37;4.80;;;21.30;54.50;;;;;;6185100;23;20423;-65
2023/01/18 04:36:21;;;;;;;6.57;5.40;;;21.30;54.50;;;;;;6185146;23;20724;-65
2023/01/18 04:38:50;;;;;;;7.20;5.90;;;21.30;54.50;;;;;;6185536;23;20148;-62
2023/01/18 04:41:16;;;;;;;6.63;5.37;;;21.30;54.50;;;;;;6185322;23;20402;-66
2023/01/18 04:43:42;;;;;;;6.00;5.20;;;21.30;54.50;;;;;;6185207;23;20868;-65
2023/01/18 04:46:07;;;;;;;5.43;4.93;;;21.30;54.50;;;;;;6185170;23;20160;-65
2023/01/18 04:48:33;;;;;;;5.77;5.27;;;21.30;54.50;;;;;;6185550;23;20172;-65
2023/01/18 04:50:58;;;;;;;6.80;5.47;;;21.30;54.50;;;;;;6185348;23;20176;-66
2023/01/18 04:53:24;;;;;;;6.03;5.10;;;21.30;54.50;;;;;;6185050;23;20211;-65
2023/01/18 04:55:49;;;;;;;5.33;4.83;;;21.30;54.50;;;;;;6185098;23;20231;-65
2023/01/18 04:58:15;;;;;;;6.07;5.10;;;21.30;54.50;;;;;;6185432;23;20171;-65
2023/01/18 05:00:41;;;;;;;7.03;5.70;;;21.30;54.50;;;;;;6185301;23;20208;-66
2023/01/18 05:03:10;;;;;;;6.33;5.23;;;21.30;54.50;;;;;;6158827;23;20155;-65
2023/01/18 05:05:37;;;;;;;5.97;5.37;;;21.30;54.50;;;;;;6185046;23;20515;-65
2023/01/18 05:08:03;;;;;;;5.67;5.07;;;21.30;54.50;;;;;;6185324;23;20383;-65
2023/01/18 05:10:29;;;;;;;7.00;5.57;;;21.30;54.50;;;;;;6185054;23;20433;-65
2023/01/18 05:12:54;;;;;;;5.43;4.93;;;21.30;54.50;;;;;;6158808;23;20298;-65
2023/01/18 05:15:20;;;;;;;5.93;5.30;;;21.30;54.50;;;;;;6185001;23;20144;-65
2023/01/18 05:17:45;;;;;;;8.40;5.27;;;21.30;54.50;;;;;;6185061;23;20151;-65
2023/01/18 05:20:12;;;;;;;7.17;5.27;;;21.30;54.50;;;;;;6184868;23;20147;-65
2023/01/18 05:22:37;;;;;;;6.40;5.80;;;21.30;54.50;;;;;;6184732;23;20717;-65
2023/01/18 05:25:04;;;;;;;5.20;4.70;;;21.30;54.50;;;;;;6185592;23;20383;-65
2023/01/18 05:27:30;;;;;;;5.90;4.60;;;21.30;54.50;;;;;;6184932;23;20227;-65
2023/01/18 05:29:56;;;;;;;5.30;4.80;;;21.30;54.50;;;;;;6184947;23;20417;-65
2023/01/18 05:32:21;;;;;;;5.30;4.80;;;21.30;54.50;;;;;;6160036;23;20172;-65
2023/01/18 05:34:47;;;;;;;6.50;5.47;;;21.30;54.50;;;;;;6186746;23;20154;-65
2023/01/18 05:37:12;;;;;;;5.50;4.93;;;21.30;54.50;;;;;;6186684;23;20583;-65
2023/01/18 05:39:38;;;;;;;5.70;4.90;;;21.30;54.50;;;;;;6160273;23;20163;-65
2023/01/18 05:42:04;;;;;;;6.00;5.40;;;21.20;54.40;;;;;;6186940;23;20168;-65
2023/01/18 05:44:30;;;;;;;6.03;5.43;;;21.20;54.50;;;;;;6160430;23;20175;-65
2023/01/18 05:46:57;;;;;;;5.13;4.63;;;21.20;54.40;;;;;;6186436;23;20379;-65
2023/01/18 05:49:22;;;;;;;5.23;4.73;;;21.20;54.40;;;;;;6186733;23;20662;-65
2023/01/18 05:51:48;;;;;;;5.50;5.00;;;21.20;54.40;;;;;;6186737;23;20427;-65
2023/01/18 05:54:14;;;;;;;5.50;4.90;;;21.20;54.40;;;;;;6186930;23;20176;-65
2023/01/18 05:56:39;;;;;;;5.60;5.00;;;21.20;55.00;;;;;;6160373;23;20193;-65
2023/01/18 05:59:05;;;;;;;5.20;4.70;;;21.20;54.50;;;;;;6186863;23;20155;-65
2023/01/18 06:01:30;;;;;;;5.43;4.93;;;21.20;54.50;;;;;;6186450;23;20195;-65
2023/01/18 06:03:56;;;;;;;5.40;4.90;;;21.20;54.50;;;;;;6186731;23;20155;-66
2023/01/18 06:06:21;;;;;;;4.80;4.30;;;21.20;54.40;;;;;;6186708;23;20159;-66
2023/01/18 06:08:47;;;;;;;4.77;4.10;;;21.20;54.50;;;;;;6186543;23;20151;-65
2023/01/18 06:11:13;;;;;;;4.63;4.20;;;21.20;54.40;;;;;;6186241;23;20172;-66
2023/01/18 06:13:38;;;;;;;4.80;4.40;;;21.20;54.50;;;;;;6186438;23;20172;-66
2023/01/18 06:16:04;;;;;;;5.30;4.57;;;21.20;54.40;;;;;;6186507;23;20643;-66
2023/01/18 06:18:31;;;;;;;4.80;4.30;;;21.20;54.40;;;;;;6186727;23;20230;-66
2023/01/18 06:20:59;;;;;;;5.43;4.57;;;21.20;54.40;;;;;;6186124;23;20389;-66
2023/01/18 06:23:25;;;;;;;4.60;3.97;;;21.20;54.40;;;;;;6186436;23;20437;-66
2023/01/18 06:25:50;;;;;;;5.50;4.90;;;21.20;54.40;;;;;;6186724;23;20693;-66
2023/01/18 06:28:18;;;;;;;6.30;5.53;;;21.20;54.40;;;;;;6186716;23;20383;-65
2023/01/18 06:30:46;;;;;;;5.63;4.20;;;21.20;54.40;;;;;;6186571;23;20614;-65
2023/01/18 06:33:13;;;;;;;5.10;4.43;;;21.30;54.40;;;;;;6186152;23;20446;-66
2023/01/18 06:35:40;;;;;;;4.60;4.20;;;21.20;54.30;;;;;;6186172;23;20470;-64
2023/01/18 06:38:06;;;;;;;5.70;4.43;;;21.30;54.30;;;;;;6186223;23;20371;-65
2023/01/18 06:40:31;;;;;;;6.30;5.00;;;21.30;54.30;;;;;;6186273;23;20422;-65
2023/01/18 06:42:57;;;;;;;5.37;4.43;;;21.30;54.30;;;;;;6159262;23;20175;-65
2023/01/18 06:45:24;;;;;;;5.73;4.50;;;21.30;54.30;;;;;;6186147;23;20159;-65
2023/01/18 06:47:50;;;;;;;4.60;4.10;;;21.30;54.30;;;;;;6186104;23;20152;-66
2023/01/18 06:50:17;;;;;;;4.87;4.37;;;21.30;54.40;;;;;;6186122;23;20956;-66
2023/01/18 06:52:43;;;;;;;7.50;4.80;;;21.40;54.50;;;;;;6185933;23;20429;-65
2023/01/18 06:55:13;;;;;;;5.47;4.97;;;21.40;54.40;;;;;;6187345;23;20387;-66
2023/01/18 06:57:39;;;;;;;5.30;4.80;;;21.40;54.40;;;;;;6186039;23;20395;-65
2023/01/18 07:00:06;;;;;;;5.10;4.40;;;21.40;54.40;;;;;;6185889;23;20414;-66
2023/01/18 07:02:32;;;;;;;5.80;4.90;;;21.40;54.40;;;;;;6186132;23;20937;-65
2023/01/18 07:04:58;;;;;;;5.30;4.80;;;21.40;54.40;;;;;;6159545;23;20429;-65
2023/01/18 07:07:25;;;;;;;4.50;4.10;;;21.50;54.40;;;;;;6185963;23;20403;-65
2023/01/18 07:09:51;;;;;;;3.93;3.53;;;21.50;54.40;;;;;;6185879;23;20151;-66
2023/01/18 07:12:17;;;;;;;4.50;4.10;;;21.50;54.40;;;;;;6159335;23;20403;-66
2023/01/18 07:14:42;;;;;;;4.50;4.07;;;21.50;54.40;;;;;;6185837;23;20154;-65
2023/01/18 07:17:08;;;;;;;4.93;4.43;;;21.50;54.40;;;;;;6183767;23;20419;-66
2023/01/18 07:19:34;;;;;;;4.37;3.97;;;21.50;54.30;;;;;;6185990;23;20151;-65
2023/01/18 07:22:00;;;;;;;4.10;3.70;;;21.60;54.40;;;;;;6185560;23;20230;-65
2023/01/18 07:24:26;;;;;;;4.30;3.90;;;21.60;54.40;;;;;;6185849;23;20158;-64
2023/01/18 07:26:52;;;;;;;4.40;4.00;;;21.50;54.30;;;;;;6186043;23;20379;-66
2023/01/18 07:29:18;;;;;;;5.00;3.73;;;21.60;54.40;;;;;;6186057;23;20477;-65
2023/01/18 07:31:44;;;;;;;4.00;3.40;;;21.60;54.40;;;;;;6159226;23;20434;-65
2023/01/18 07:34:10;;;;;;;4.03;3.40;;;21.60;54.40;;;;;;6185500;23;20794;-66
2023/01/18 07:36:38;;;;;;;5.37;3.40;;;21.60;54.40;;;;;;6185596;23;20155;-65
2023/01/18 07:39:05;;;;;;;4.17;3.77;;;21.60;54.30;;;;;;6185646;23;20379;-65
2023/01/18 07:41:31;;;;;;;4.17;3.77;;;21.60;54.30;;;;;;6185527;23;20737;-64
2023/01/18 07:43:57;;;;;;;4.73;3.97;;;21.60;54.30;;;;;;6185556;23;20382;-66
2023/01/18 07:46:24;;;;;;;4.70;4.20;;;21.60;54.30;;;;;;6185544;23;20374;-66
2023/01/18 07:48:51;;;;;;;4.30;3.40;;;21.70;54.40;;;;;;6185840;23;20155;-65
2023/01/18 07:51:18;;;;;;;4.73;4.23;;;21.70;54.40;;;;;;6185736;23;20404;-65
2023/01/18 07:53:44;;;;;;;4.37;3.80;;;21.60;54.30;;;;;;6159217;23;20767;-66
2023/01/18 07:56:12;;;;;;;4.47;4.07;;;21.60;54.30;;;;;;6185658;23;20409;-66
2023/01/18 07:58:38;;;;;;;4.40;3.90;;;21.70;54.30;;;;;;6159071;23;20700;-65
2023/01/18 08:01:07;;;;;;;4.53;3.43;;;21.70;54.30;;;;;;6159655;23;20438;-65
2023/01/18 08:03:33;;;;;;;4.73;3.47;;;21.70;54.30;;;;;;6185766;23;20406;-64
2023/01/18 08:06:02;;;;;;;4.10;3.70;;;21.70;54.30;;;;;;6185412;23;20864;-63
2023/01/18 08:08:28;;;;;;;3.63;3.23;;;21.70;54.30;;;;;;6185339;23;20371;-66
2023/01/18 08:10:55;;;;;;;4.10;3.70;;;21.70;54.30;;;;;;6185596;23;20761;-66
2023/01/18 08:13:21;;;;;;;4.77;4.10;;;21.70;54.30;;;;;;6185497;23;20422;-66
2023/01/18 08:15:47;;;;;;;5.80;3.70;;;21.70;54.20;;;;;;6185520;23;20504;-66
2023/01/18 08:18:13;;;;;;;3.80;3.17;;;21.70;54.20;;;;;;6185299;23;20375;-66
2023/01/18 08:20:42;;;;;;;4.60;3.97;;;21.70;54.80;;;;;;6185299;23;20148;-65
2023/01/18 08:23:08;;;;;;;4.63;3.57;;;21.70;54.20;;;;;;6185448;23;20159;-65
2023/01/18 08:25:33;;;;;;;3.53;3.23;;;21.70;54.20;;;;;;6185365;23;20866;-66
2023/01/18 08:28:00;;;;;;;4.70;3.40;;;21.70;54.20;;;;;;6185261;23;20155;-66
2023/01/18 08:30:29;;;;;;;3.73;3.30;;;21.70;54.20;;;;;;6185566;23;20233;-66
2023/01/18 08:32:56;;;;;;;3.83;3.33;;;21.70;54.20;;;;;;6185060;23;20418;-65
2023/01/18 08:35:22;;;;;;;5.17;3.87;;;21.70;54.20;;;;;;6185538;23;20383;-66
2023/01/18 08:37:48;;;;;;;3.87;3.47;;;21.70;54.20;;;;;;6185247;23;20368;-65
2023/01/18 08:40:13;;;;;;;4.43;3.70;;;21.70;54.20;;;;;;6185584;23;20382;-65
2023/01/18 08:42:39;;;;;;;4.17;3.60;;;21.70;54.20;;;;;;6185140;23;20258;-65
2023/01/18 08:45:05;;;;;;;4.20;3.53;;;21.70;54.20;;;;;;6185197;23;20155;-65
2023/01/18 08:47:31;;;;;;;3.73;3.43;;;21.70;54.20;;;;;;6185050;23;20591;-65
2023/01/18 08:49:57;;;;;;;4.70;3.20;;;21.70;54.20;;;;;;6185374;23;20375;-65
2023/01/18 08:52:22;;;;;;;4.33;3.50;;;21.70;54.20;;;;;;6184990;23;20168;-66
2023/01/18 08:54:48;;;;;;;3.93;3.30;;;21.70;54.30;;;;;;6185343;23;20144;-66
2023/01/18 08:57:13;;;;;;;3.87;3.57;;;21.70;54.20;;;;;;6158588;23;20281;-66
2023/01/18 08:59:39;;;;;;;3.87;3.53;;;21.70;54.30;;;;;;6158552;23;20152;-65
2023/01/18 09:02:05;;;;;;;4.77;3.50;;;21.70;54.30;;;;;;6185226;23;20167;-65
2023/01/18 09:04:30;;;;;;;4.10;3.70;;;21.70;54.30;;;;;;6184965;23;20223;-65
2023/01/18 09:06:57;;;;;;;4.27;3.53;;;21.70;54.30;;;;;;6186390;23;20595;-66
2023/01/18 09:09:22;;;;;;;3.50;3.20;;;21.60;54.20;;;;;;6186879;23;20171;-65
2023/01/18 09:11:51;;;;;;;4.20;3.30;;;21.70;54.30;;;;;;6186922;23;20399;-66
2023/01/18 09:14:17;;;;;;;3.70;3.40;;;21.70;54.30;;;;;;6187070;23;20175;-64
2023/01/18 09:16:42;;;;;;;3.70;3.40;;;21.60;54.30;;;;;;6187086;23;20379;-66
2023/01/18 09:19:08;;;;;;;2.93;2.67;;;21.60;54.30;;;;;;6186774;23;20148;-65
2023/01/18 09:21:34;;;;;;;3.70;3.30;;;21.60;54.30;;;;;;6186662;23;20210;-66
2023/01/18 09:24:00;;;;;;;3.63;3.33;;;21.60;54.30;;;;;;6186697;23;20655;-66
2023/01/18 09:26:27;;;;;;;3.90;3.10;;;21.70;54.40;;;;;;6187061;23;20187;-65
2023/01/18 09:28:53;;;;;;;7.20;3.00;;;21.60;54.30;;;;;;6186676;23;20159;-65
2023/01/18 09:31:22;;;;;;;3.27;2.97;;;21.60;54.30;;;;;;6187377;23;20442;-66
2023/01/18 09:33:47;;;;;;;6.80;3.53;;;21.60;54.30;;;;;;6186522;23;20513;-66
2023/01/18 09:36:13;;;;;;;4.53;3.70;;;21.60;54.30;;;;;;6186664;23;20491;-66
2023/01/18 09:38:43;;;;;;;4.07;3.67;;;21.60;54.30;;;;;;6186562;23;20194;-65
2023/01/18 09:41:33;;;;;;;3.30;3.00;;;21.60;54.40;;;;;;6186457;23;20445;-65
2023/01/18 09:44:19;;;;;;;4.73;3.30;;;21.60;54.30;;;;;;6160186;23;20418;-65
2023/01/18 09:46:50;;;;;;;3.57;3.17;;;21.60;54.40;;;;;;6186588;23;20351;-66
2023/01/18 09:49:22;;;;;;;3.63;3.03;;;21.60;54.40;;;;;;6186485;23;20359;-65
2023/01/18 09:52:10;;;;;;;3.13;2.80;;;21.60;54.40;;;;;;6159921;23;20498;-66
2023/01/18 09:54:54;;;;;;;4.60;3.33;;;21.60;54.40;;;;;;6186964;23;20429;-65
2023/01/18 09:57:55;;;;;;;4.20;3.30;;;21.60;54.40;;;;;;6186583;23;20352;-65
2023/01/18 10:00:25;;;;;;;3.67;2.93;;;21.60;54.40;;;;;;6066532;23;20753;-65
2023/01/18 10:02:55;;;;;;;3.30;3.00;;;21.60;54.40;;;;;;6138656;23;20411;-66
2023/01/18 10:05:28;;;;;;;3.60;2.97;;;21.60;54.40;;;;;;6186288;23;20429;-65
2023/01/18 10:08:14;;;;;;;3.40;3.10;;;21.60;54.40;;;;;;6186380;23;20379;-65
2023/01/18 10:10:52;;;;;;;3.70;3.10;;;21.60;54.40;;;;;;6186240;23;20359;-64
2023/01/18 10:13:32;;;;;;;3.60;2.90;;;21.60;54.40;;;;;;6186247;23;20957;-66
2023/01/18 10:15:58;;;;;;;3.27;2.97;;;21.60;54.40;;;;;;6186525;23;20356;-66
2023/01/18 10:18:24;;;;;;;3.53;3.00;;;21.60;54.40;;;;;;6186443;23;20406;-66
2023/01/18 10:20:56;;;;;;;3.27;2.87;;;21.60;54.40;;;;;;6185815;23;20510;-65
2023/01/18 10:23:44;;;;;;;4.13;3.00;;;21.60;54.40;;;;;;6186527;23;20364;-66
2023/01/18 10:26:29;;;;;;;3.30;3.00;;;21.60;54.40;;;;;;6186200;23;20370;-66
2023/01/18 10:29:29;;;;;;;4.03;3.20;;;21.60;54.40;;;;;;6186215;23;20359;-65
2023/01/18 10:32:14;;;;;;;3.80;2.83;;;21.60;54.40;;;;;;6186372;23;20394;-66
2023/01/18 10:34:45;;;;;;;3.50;3.07;;;21.60;54.40;;;;;;6159638;23;20787;-65
2023/01/18 10:37:17;;;;;;;2.63;2.43;;;21.60;54.40;;;;;;6186096;23;20359;-65
2023/01/18 10:39:49;;;;;;;5.43;2.80;;;21.60;54.40;;;;;;6186397;23;20360;-65
2023/01/18 10:42:38;;;;;;;3.30;3.00;;;21.60;54.40;;;;;;6159933;23;20433;-65
2023/01/18 10:45:21;;;;;;;3.73;3.00;;;21.60;54.40;;;;;;6157086;23;20890;-65
2023/01/18 10:47:48;;;;;;;2.80;2.50;;;21.60;54.40;;;;;;6185942;23;20418;-65
2023/01/18 10:50:18;;;;;;;3.70;3.27;;;21.60;54.40;;;;;;6159986;23;20375;-65
2023/01/18 10:52:45;;;;;;;2.87;2.57;;;21.60;54.40;;;;;;6159544;23;20465;-65
2023/01/18 10:55:16;;;;;;;3.03;2.70;;;21.60;54.40;;;;;;6185878;23;20430;-65
2023/01/18 10:57:53;;;;;;;2.80;2.57;;;21.60;54.40;;;;;;6159869;23;20375;-65
2023/01/18 11:00:29;;;;;;;3.30;2.87;;;21.60;54.40;;;;;;6135136;23;20477;-65
2023/01/18 11:02:56;;;;;;;2.67;2.47;;;21.60;54.30;;;;;;6185828;23;20405;-65
2023/01/18 11:05:32;;;;;;;3.00;2.70;;;21.60;54.40;;;;;;6185843;23;20382;-65
2023/01/18 11:08:19;;;;;;;4.20;3.13;;;21.60;54.40;;;;;;6185919;23;20449;-65
2023/01/18 11:10:45;;;;;;;2.93;2.53;;;21.60;54.40;;;;;;6186048;23;20379;-65
2023/01/18 11:13:30;;;;;;;3.97;2.77;;;21.60;54.40;;;;;;6159794;23;20428;-65
2023/01/18 11:16:20;;;;;;;2.43;2.23;;;21.60;54.40;;;;;;6185739;23;20154;-65
2023/01/18 11:19:16;;;;;;;3.13;2.40;;;21.60;54.40;;;;;;6186013;23;20387;-65
2023/01/18 11:21:48;;;;;;;3.87;3.47;;;21.60;54.40;;;;;;6147112;23;20561;-63
2023/01/18 11:24:16;;;;;;;3.47;2.70;;;21.60;54.40;;;;;;6135325;23;20948;-65
2023/01/18 11:26:51;;;;;;;3.10;2.50;;;21.60;54.40;;;;;;6185476;23;20463;-63
2023/01/18 11:29:17;;;;;;;2.90;2.60;;;21.60;54.50;;;;;;6185251;23;20689;-64
2023/01/18 11:31:45;;;;;;;4.30;2.80;;;21.60;54.50;;;;;;6185552;23;20717;-66
2023/01/18 11:34:33;;;;;;;3.37;3.07;;;21.60;54.50;;;;;;6159905;23;20481;-66
2023/01/18 11:37:00;;;;;;;22.20;10.30;;;21.60;54.40;;;;;;6159768;23;20379;-65
2023/01/18 11:39:33;;;;;;;15.60;6.80;;;21.60;54.40;;;;;;6185828;23;20705;-63
2023/01/18 11:42:18;;;;;;;20.73;12.00;;;21.60;54.40;;;;;;6185764;23;20414;-65
2023/01/18 11:44:51;;;;;;;27.27;15.90;;;21.60;54.40;;;;;;6185716;23;20399;-66
2023/01/18 11:47:33;;;;;;;35.47;22.43;;;21.60;54.40;;;;;;6159082;23;20856;-65
2023/01/18 11:50:14;;;;;;;45.87;24.10;;;21.60;54.40;;;;;;6185798;23;20754;-66
2023/01/18 11:52:46;;;;;;;32.00;17.53;;;21.60;54.40;;;;;;6158904;23;20905;-64
2023/01/18 11:55:40;;;;;;;31.23;18.20;;;21.60;54.40;;;;;;6159072;23;20462;-66
2023/01/18 11:58:28;;;;;;;42.87;20.50;;;21.60;54.40;;;;;;6185687;23;20363;-65
2023/01/18 12:01:22;;;;;;;45.27;25.30;;;21.60;54.40;;;;;;6160068;23;20437;-65
2023/01/18 12:03:53;;;;;;;46.70;22.63;;;21.60;54.40;;;;;;6185350;23;20351;-65
2023/01/18 12:06:45;;;;;;;51.37;25.80;;;21.60;54.40;;;;;;6159059;23;20881;-65
2023/01/18 12:09:14;;;;;;;43.37;22.30;;;21.50;54.30;;;;;;6163394;23;20348;-66
2023/01/18 12:11:45;;;;;;;42.93;23.80;;;21.60;54.40;;;;;;6158668;23;20414;-65
2023/01/18 12:14:14;;;;;;;43.87;23.13;;;21.60;54.40;;;;;;6185165;23;20909;-65
2023/01/18 12:16:46;;;;;;;43.27;21.03;;;21.60;54.40;;;;;;6185597;23;20379;-65
2023/01/18 12:19:18;;;;;;;34.93;21.17;;;21.60;54.40;;;;;;6158813;23;20371;-66
2023/01/18 12:22:21;;;;;;;38.30;19.90;;;21.60;54.40;;;;;;6184845;23;20485;-64
2023/01/18 12:24:56;;;;;;;34.77;20.57;;;21.60;54.40;;;;;;6163121;23;20359;-66
2023/01/18 12:27:35;;;;;;;39.93;20.83;;;21.60;54.40;;;;;;6185150;23;20421;-65
2023/01/18 12:30:30;;;;;;;33.63;18.40;;;21.60;54.40;;;;;;6159106;23;20455;-66
2023/01/18 12:33:04;;;;;;;31.50;18.20;;;21.60;54.40;;;;;;6179089;23;20459;-62
2023/01/18 12:35:47;;;;;;;34.33;17.50;;;21.60;54.40;;;;;;6159129;23;20439;-66
2023/01/18 12:38:27;;;;;;;25.67;16.00;;;21.60;54.40;;;;;;6185539;23;20374;-66
2023/01/18 12:41:20;;;;;;;30.73;17.60;;;21.60;54.40;;;;;;6161564;23;20433;-66
2023/01/18 12:43:51;;;;;;;24.30;14.10;;;21.60;54.40;;;;;;6187665;23;20382;-66
2023/01/18 12:46:40;;;;;;;24.00;13.47;;;21.60;54.40;;;;;;6160852;23;20850;-65
2023/01/18 12:49:20;;;;;;;25.37;14.73;;;21.60;54.40;;;;;;6186574;23;20379;-65
2023/01/18 12:51:54;;;;;;;21.47;11.97;;;21.60;54.40;;;;;;6162333;23;20467;-66
2023/01/18 12:54:44;;;;;;;26.00;13.37;;;21.60;54.40;;;;;;6187082;23;20786;-65
2023/01/18 12:57:12;;;;;;;25.70;12.60;;;21.60;54.40;;;;;;6161525;23;20466;-65
2023/01/18 13:00:04;;;;;;;23.33;11.80;;;21.60;54.40;;;;;;6161552;23;20510;-66
2023/01/18 13:02:38;;;;;;;17.70;10.07;;;21.60;54.40;;;;;;6186826;23;20897;-65
2023/01/18 13:05:33;;;;;;;20.53;11.07;;;21.60;54.40;;;;;;6160957;23;20370;-65
2023/01/18 13:08:13;;;;;;;19.70;11.40;;;21.60;54.40;;;;;;6162272;23;20363;-66
2023/01/18 13:10:40;;;;;;;18.90;9.50;;;21.60;54.40;;;;;;6186816;23;20351;-67
2023/01/18 13:13:09;;;;;;;20.33;10.47;;;21.60;54.40;;;;;;6187746;23;20418;-66
2023/01/18 13:15:54;;;;;;;18.83;9.30;;;21.60;54.40;;;;;;6161512;23;20375;-66
2023/01/18 13:18:26;;;;;;;16.13;9.17;;;21.60;54.40;;;;;;6160783;23;20375;-64
2023/01/18 13:21:34;;;;;;;16.10;8.83;;;21.60;54.40;;;;;;6135818;23;20379;-66
2023/01/18 13:24:30;;;;;;;13.37;8.90;;;21.60;54.40;;;;;;6186690;23;20896;-65
2023/01/18 13:27:10;;;;;;;15.53;9.13;;;21.60;54.50;;;;;;6187031;23;20385;-66
2023/01/18 13:29:36;;;;;;;13.37;8.87;;;21.60;54.50;;;;;;6187124;23;20744;-65
2023/01/18 13:32:19;;;;;;;14.53;8.23;;;21.60;54.50;;;;;;6135795;23;20449;-65
2023/01/18 13:34:47;;;;;;;12.83;7.70;;;21.60;54.50;;;;;;6164232;23;20406;-66